sensor_id;sensor_type;location;lat;lon;timestamp;pressure;altitude;pressure_sealevel;temperature;humidity
51496;BME280;37572;52.094;4.870;2023-04-21T00:02:10;101636.50;;;12.38;55.29
51496;BME280;37572;52.094;4.870;2023-04-21T00:04:40;101637.34;;;12.39;55.29
51496;BME280;37572;52.094;4.870;2023-04-21T00:07:05;101643.66;;;12.38;55.30
51496;BME280;37572;52.094;4.870;2023-04-21T00:09:31;101654.50;;;12.36;55.24
51496;BME280;37572;52.094;4.870;2023-04-21T00:11:56;101655.47;;;12.35;55.31
51496;BME280;37572;52.094;4.870;2023-04-21T00:14:21;101652.25;;;12.32;55.53
51496;BME280;37572;52.094;4.870;2023-04-21T00:16:47;101656.78;;;12.31;55.78
51496;BME280;37572;52.094;4.870;2023-04-21T00:19:17;101647.34;;;12.27;55.87
51496;BME280;37572;52.094;4.870;2023-04-21T00:21:42;101641.34;;;12.25;55.86
51496;BME280;37572;52.094;4.870;2023-04-21T00:24:09;101631.94;;;12.21;56.25
51496;BME280;37572;52.094;4.870;2023-04-21T00:26:34;101631.94;;;12.21;56.30
51496;BME280;37572;52.094;4.870;2023-04-21T00:28:59;101622.09;;;12.21;56.29
51496;BME280;37572;52.094;4.870;2023-04-21T00:31:25;101617.59;;;12.22;56.34
51496;BME280;37572;52.094;4.870;2023-04-21T00:33:50;101625.44;;;12.24;56.54
51496;BME280;37572;52.094;4.870;2023-04-21T00:36:15;101620.13;;;12.24;56.43
51496;BME280;37572;52.094;4.870;2023-04-21T00:38:41;101611.13;;;12.25;56.25
51496;BME280;37572;52.094;4.870;2023-04-21T00:41:06;101595.94;;;12.25;56.41
51496;BME280;37572;52.094;4.870;2023-04-21T00:43:31;101584.13;;;12.28;56.33
51496;BME280;37572;52.094;4.870;2023-04-21T00:45:57;101585.66;;;12.30;56.33
51496;BME280;37572;52.094;4.870;2023-04-21T00:48:22;101586.34;;;12.32;56.37
51496;BME280;37572;52.094;4.870;2023-04-21T00:50:47;101585.50;;;12.32;56.64
51496;BME280;37572;52.094;4.870;2023-04-21T00:53:14;101581.16;;;12.31;56.57
51496;BME280;37572;52.094;4.870;2023-04-21T00:55:40;101586.50;;;12.31;56.74
51496;BME280;37572;52.094;4.870;2023-04-21T00:58:05;101594.53;;;12.31;56.81
51496;BME280;37572;52.094;4.870;2023-04-21T01:00:31;101584.81;;;12.30;56.69
51496;BME280;37572;52.094;4.870;2023-04-21T01:02:56;101592.69;;;12.31;56.82
51496;BME280;37572;52.094;4.870;2023-04-21T01:05:24;101589.84;;;12.33;56.62
51496;BME280;37572;52.094;4.870;2023-04-21T01:07:49;101579.03;;;12.34;56.31
51496;BME280;37572;52.094;4.870;2023-04-21T01:10:14;101572.69;;;12.35;56.95
51496;BME280;37572;52.094;4.870;2023-04-21T01:12:44;101576.22;;;12.36;56.83
51496;BME280;37572;52.094;4.870;2023-04-21T01:15:11;101590.25;;;12.38;56.68
51496;BME280;37572;52.094;4.870;2023-04-21T01:17:36;101576.06;;;12.37;56.88
51496;BME280;37572;52.094;4.870;2023-04-21T01:20:05;101571.03;;;12.34;57.14
51496;BME280;37572;52.094;4.870;2023-04-21T01:22:36;101579.19;;;12.33;57.19
51496;BME280;37572;52.094;4.870;2023-04-21T01:25:01;101575.69;;;12.32;57.05
51496;BME280;37572;52.094;4.870;2023-04-21T01:27:27;101579.47;;;12.30;57.30
51496;BME280;37572;52.094;4.870;2023-04-21T01:29:53;101572.44;;;12.29;57.52
51496;BME280;37572;52.094;4.870;2023-04-21T01:32:20;101570.06;;;12.26;57.58
51496;BME280;37572;52.094;4.870;2023-04-21T01:34:47;101567.56;;;12.24;57.62
51496;BME280;37572;52.094;4.870;2023-04-21T01:37:15;101569.38;;;12.24;57.69
51496;BME280;37572;52.094;4.870;2023-04-21T01:39:43;101563.34;;;12.21;57.68
51496;BME280;37572;52.094;4.870;2023-04-21T01:42:09;101562.53;;;12.21;57.76
51496;BME280;37572;52.094;4.870;2023-04-21T01:44:35;101563.34;;;12.21;57.85
51496;BME280;37572;52.094;4.870;2023-04-21T01:47:01;101558.84;;;12.22;57.77
51496;BME280;37572;52.094;4.870;2023-04-21T01:49:26;101552.66;;;12.21;57.76
51496;BME280;37572;52.094;4.870;2023-04-21T01:51:52;101542.81;;;12.22;57.95
51496;BME280;37572;52.094;4.870;2023-04-21T01:54:17;101542.66;;;12.24;58.04
51496;BME280;37572;52.094;4.870;2023-04-21T01:56:42;101549.72;;;12.25;57.94
51496;BME280;37572;52.094;4.870;2023-04-21T01:59:07;101532.66;;;12.26;58.00
51496;BME280;37572;52.094;4.870;2023-04-21T02:01:33;101533.53;;;12.26;57.80
51496;BME280;37572;52.094;4.870;2023-04-21T02:04:00;101541.41;;;12.28;58.08
51496;BME280;37572;52.094;4.870;2023-04-21T02:06:25;101532.38;;;12.29;58.05
51496;BME280;37572;52.094;4.870;2023-04-21T02:08:50;101530.72;;;12.28;57.99
51496;BME280;37572;52.094;4.870;2023-04-21T02:11:16;101529.84;;;12.27;58.06
51496;BME280;37572;52.094;4.870;2023-04-21T02:13:41;101528.06;;;12.28;57.95
51496;BME280;37572;52.094;4.870;2023-04-21T02:16:06;101524.66;;;12.26;58.04
51496;BME280;37572;52.094;4.870;2023-04-21T02:18:32;101528.19;;;12.26;58.07
51496;BME280;37572;52.094;4.870;2023-04-21T02:20:58;101540.53;;;12.27;57.92
51496;BME280;37572;52.094;4.870;2023-04-21T02:23:23;101538.00;;;12.26;57.79
51496;BME280;37572;52.094;4.870;2023-04-21T02:25:49;101530.00;;;12.26;58.03
51496;BME280;37572;52.094;4.870;2023-04-21T02:28:14;101529.03;;;12.27;57.78
51496;BME280;37572;52.094;4.870;2023-04-21T02:30:39;101526.34;;;12.27;57.78
51496;BME280;37572;52.094;4.870;2023-04-21T02:33:05;101523.53;;;12.28;57.96
51496;BME280;37572;52.094;4.870;2023-04-21T02:35:30;101523.53;;;12.28;57.88
51496;BME280;37572;52.094;4.870;2023-04-21T02:37:57;101516.50;;;12.27;57.74
51496;BME280;37572;52.094;4.870;2023-04-21T02:40:23;101514.69;;;12.28;58.13
51496;BME280;37572;52.094;4.870;2023-04-21T02:42:48;101513.00;;;12.27;58.08
51496;BME280;37572;52.094;4.870;2023-04-21T02:45:13;101506.69;;;12.28;58.08
51496;BME280;37572;52.094;4.870;2023-04-21T02:47:39;101498.66;;;12.28;58.23
51496;BME280;37572;52.094;4.870;2023-04-21T02:50:04;101507.50;;;12.28;58.13
51496;BME280;37572;52.094;4.870;2023-04-21T02:52:34;101504.84;;;12.28;58.25
51496;BME280;37572;52.094;4.870;2023-04-21T02:55:00;101511.16;;;12.27;58.17
51496;BME280;37572;52.094;4.870;2023-04-21T02:57:25;101510.47;;;12.25;58.17
51496;BME280;37572;52.094;4.870;2023-04-21T02:59:50;101504.47;;;12.23;58.29
51496;BME280;37572;52.094;4.870;2023-04-21T03:02:16;101500.97;;;12.23;58.20
51496;BME280;37572;52.094;4.870;2023-04-21T03:04:41;101496.59;;;12.21;58.21
51496;BME280;37572;52.094;4.870;2023-04-21T03:07:10;101504.59;;;12.21;58.44
51496;BME280;37572;52.094;4.870;2023-04-21T03:09:36;101505.59;;;12.20;58.33
51496;BME280;37572;52.094;4.870;2023-04-21T03:12:01;101504.06;;;12.18;58.56
51496;BME280;37572;52.094;4.870;2023-04-21T03:14:27;101498.88;;;12.16;58.77
51496;BME280;37572;52.094;4.870;2023-04-21T03:16:52;101503.25;;;12.17;58.80
51496;BME280;37572;52.094;4.870;2023-04-21T03:19:17;101501.25;;;12.19;58.69
51496;BME280;37572;52.094;4.870;2023-04-21T03:21:44;101511.94;;;12.19;58.62
51496;BME280;37572;52.094;4.870;2023-04-21T03:24:09;101512.75;;;12.20;58.62
51496;BME280;37572;52.094;4.870;2023-04-21T03:26:35;101511.06;;;12.19;58.57
51496;BME280;37572;52.094;4.870;2023-04-21T03:29:00;101509.25;;;12.19;58.48
51496;BME280;37572;52.094;4.870;2023-04-21T03:31:25;101486.88;;;12.20;58.64
51496;BME280;37572;52.094;4.870;2023-04-21T03:33:50;101498.44;;;12.21;58.81
51496;BME280;37572;52.094;4.870;2023-04-21T03:36:16;101481.69;;;12.19;58.74
51496;BME280;37572;52.094;4.870;2023-04-21T03:38:41;101497.56;;;12.20;58.81
51496;BME280;37572;52.094;4.870;2023-04-21T03:41:06;101476.22;;;12.20;58.71
51496;BME280;37572;52.094;4.870;2023-04-21T03:43:31;101476.22;;;12.20;58.85
51496;BME280;37572;52.094;4.870;2023-04-21T03:45:57;101466.38;;;12.21;58.86
51496;BME280;37572;52.094;4.870;2023-04-21T03:48:22;101464.69;;;12.20;58.85
51496;BME280;37572;52.094;4.870;2023-04-21T03:50:47;101465.53;;;12.20;58.74
51496;BME280;37572;52.094;4.870;2023-04-21T03:53:13;101457.66;;;12.19;58.87
51496;BME280;37572;52.094;4.870;2023-04-21T03:55:38;101456.84;;;12.18;58.79
51496;BME280;37572;52.094;4.870;2023-04-21T03:58:03;101455.19;;;12.17;58.88
51496;BME280;37572;52.094;4.870;2023-04-21T04:00:29;101451.66;;;12.17;58.80
51496;BME280;37572;52.094;4.870;2023-04-21T04:02:54;101453.34;;;12.18;58.62
51496;BME280;37572;52.094;4.870;2023-04-21T04:05:19;101452.66;;;12.16;58.74
51496;BME280;37572;52.094;4.870;2023-04-21T04:07:45;101448.44;;;12.13;58.87
51496;BME280;37572;52.094;4.870;2023-04-21T04:10:10;101452.09;;;12.12;58.94
51496;BME280;37572;52.094;4.870;2023-04-21T04:12:36;101447.09;;;12.09;59.06
51496;BME280;37572;52.094;4.870;2023-04-21T04:15:01;101446.38;;;12.07;59.33
51496;BME280;37572;52.094;4.870;2023-04-21T04:17:27;101450.19;;;12.05;59.27
51496;BME280;37572;52.094;4.870;2023-04-21T04:19:52;101445.00;;;12.03;59.30
51496;BME280;37572;52.094;4.870;2023-04-21T04:22:17;101445.16;;;12.01;59.53
51496;BME280;37572;52.094;4.870;2023-04-21T04:24:43;101431.94;;;12.00;59.53
51496;BME280;37572;52.094;4.870;2023-04-21T04:27:09;101433.50;;;12.02;59.31
51496;BME280;37572;52.094;4.870;2023-04-21T04:29:34;101435.16;;;12.03;59.42
51496;BME280;37572;52.094;4.870;2023-04-21T04:32:00;101434.19;;;12.05;59.42
51496;BME280;37572;52.094;4.870;2023-04-21T04:34:28;101435.00;;;12.05;59.59
51496;BME280;37572;52.094;4.870;2023-04-21T04:36:53;101435.00;;;12.05;59.44
51496;BME280;37572;52.094;4.870;2023-04-21T04:39:18;101437.53;;;12.07;59.65
51496;BME280;37572;52.094;4.870;2023-04-21T04:41:44;101439.38;;;12.06;59.57
51496;BME280;37572;52.094;4.870;2023-04-21T04:44:11;101437.53;;;12.07;59.61
51496;BME280;37572;52.094;4.870;2023-04-21T04:46:36;101447.09;;;12.09;59.55
51496;BME280;37572;52.094;4.870;2023-04-21T04:49:02;101449.91;;;12.08;59.64
51496;BME280;37572;52.094;4.870;2023-04-21T04:51:27;101455.09;;;12.09;59.56
51496;BME280;37572;52.094;4.870;2023-04-21T04:53:52;101462.78;;;12.12;59.70
51496;BME280;37572;52.094;4.870;2023-04-21T04:56:18;101458.28;;;12.13;59.55
51496;BME280;37572;52.094;4.870;2023-04-21T04:58:43;101463.47;;;12.14;59.65
51496;BME280;37572;52.094;4.870;2023-04-21T05:01:17;101458.81;;;12.16;59.71
51496;BME280;37572;52.094;4.870;2023-04-21T05:03:43;101450.81;;;12.16;59.57
51496;BME280;37572;52.094;4.870;2023-04-21T05:06:09;101449.84;;;12.17;59.48
51496;BME280;37572;52.094;4.870;2023-04-21T05:08:35;101455.19;;;12.17;59.76
51496;BME280;37572;52.094;4.870;2023-04-21T05:11:01;101457.66;;;12.19;59.87
51496;BME280;37572;52.094;4.870;2023-04-21T05:13:26;101457.38;;;12.22;59.78
51496;BME280;37572;52.094;4.870;2023-04-21T05:15:59;101439.53;;;12.23;59.82
51496;BME280;37572;52.094;4.870;2023-04-21T05:18:26;101449.06;;;12.25;59.87
51496;BME280;37572;52.094;4.870;2023-04-21T05:20:52;101443.56;;;12.27;59.72
51496;BME280;37572;52.094;4.870;2023-04-21T05:23:17;101446.91;;;12.29;59.93
51496;BME280;37572;52.094;4.870;2023-04-21T05:25:43;101459.00;;;12.33;59.74
51496;BME280;37572;52.094;4.870;2023-04-21T05:28:08;101453.50;;;12.34;59.63
51496;BME280;37572;52.094;4.870;2023-04-21T05:30:33;101455.00;;;12.37;59.45
51496;BME280;37572;52.094;4.870;2023-04-21T05:32:59;101454.88;;;12.38;59.76
51496;BME280;37572;52.094;4.870;2023-04-21T05:35:24;101459.06;;;12.41;59.74
51496;BME280;37572;52.094;4.870;2023-04-21T05:37:50;101461.44;;;12.44;59.69
51496;BME280;37572;52.094;4.870;2023-04-21T05:40:15;101474.66;;;12.46;59.64
51496;BME280;37572;52.094;4.870;2023-04-21T05:42:40;101466.31;;;12.49;59.75
51496;BME280;37572;52.094;4.870;2023-04-21T05:45:06;101472.22;;;12.52;59.71
51496;BME280;37572;52.094;4.870;2023-04-21T05:47:31;101466.53;;;12.55;59.69
51496;BME280;37572;52.094;4.870;2023-04-21T05:49:57;101478.63;;;12.59;59.68
51496;BME280;37572;52.094;4.870;2023-04-21T05:52:22;101481.97;;;12.62;59.65
51496;BME280;37572;52.094;4.870;2023-04-21T05:54:47;101476.31;;;12.65;59.48
51496;BME280;37572;52.094;4.870;2023-04-21T05:57:13;101476.00;;;12.68;59.48
51496;BME280;37572;52.094;4.870;2023-04-21T05:59:40;101474.69;;;12.72;59.61
51496;BME280;37572;52.094;4.870;2023-04-21T06:02:05;101475.06;;;12.77;59.68
51496;BME280;37572;52.094;4.870;2023-04-21T06:04:31;101481.81;;;12.81;59.66
51496;BME280;37572;52.094;4.870;2023-04-21T06:06:56;101492.19;;;12.84;59.62
51496;BME280;37572;52.094;4.870;2023-04-21T06:09:22;101484.84;;;12.86;59.58
51496;BME280;37572;52.094;4.870;2023-04-21T06:11:47;101499.91;;;12.87;59.37
51496;BME280;37572;52.094;4.870;2023-04-21T06:14:12;101488.34;;;12.87;59.75
51496;BME280;37572;52.094;4.870;2023-04-21T06:16:37;101485.53;;;12.88;59.70
51496;BME280;37572;52.094;4.870;2023-04-21T06:19:03;101480.03;;;12.90;59.59
51496;BME280;37572;52.094;4.870;2023-04-21T06:21:28;101484.09;;;12.94;59.67
51496;BME280;37572;52.094;4.870;2023-04-21T06:23:53;101484.75;;;12.96;59.57
51496;BME280;37572;52.094;4.870;2023-04-21T06:26:19;101487.13;;;12.99;59.43
51496;BME280;37572;52.094;4.870;2023-04-21T06:28:44;101485.81;;;13.03;59.48
51496;BME280;37572;52.094;4.870;2023-04-21T06:31:10;101484.34;;;13.09;59.82
51496;BME280;37572;52.094;4.870;2023-04-21T06:33:40;101470.50;;;13.13;59.75
51496;BME280;37572;52.094;4.870;2023-04-21T06:36:05;101465.38;;;13.20;59.72
51496;BME280;37572;52.094;4.870;2023-04-21T06:38:31;101477.13;;;13.27;59.38
51496;BME280;37572;52.094;4.870;2023-04-21T06:40:56;101475.69;;;13.33;59.46
51496;BME280;37572;52.094;4.870;2023-04-21T06:43:21;101476.50;;;13.33;59.37
51496;BME280;37572;52.094;4.870;2023-04-21T06:45:47;101469.88;;;13.38;59.33
51496;BME280;37572;52.094;4.870;2023-04-21T06:48:12;101476.25;;;13.45;59.19
51496;BME280;37572;52.094;4.870;2023-04-21T06:50:39;101474.44;;;13.54;59.35
51496;BME280;37572;52.094;4.870;2023-04-21T06:53:05;101478.06;;;13.71;59.44
51496;BME280;37572;52.094;4.870;2023-04-21T06:55:30;101477.94;;;13.88;59.44
51496;BME280;37572;52.094;4.870;2023-04-21T06:57:55;101483.34;;;14.05;59.34
51496;BME280;37572;52.094;4.870;2023-04-21T07:00:21;101475.69;;;14.18;58.78
51496;BME280;37572;52.094;4.870;2023-04-21T07:02:46;101476.72;;;14.34;58.47
51496;BME280;37572;52.094;4.870;2023-04-21T07:05:12;101477.44;;;14.52;58.27
51496;BME280;37572;52.094;4.870;2023-04-21T07:07:37;101474.78;;;14.85;57.94
51496;BME280;37572;52.094;4.870;2023-04-21T07:10:02;101480.63;;;15.22;57.11
51496;BME280;37572;52.094;4.870;2023-04-21T07:12:28;101468.97;;;15.54;56.63
51496;BME280;37572;52.094;4.870;2023-04-21T07:14:53;101471.38;;;15.88;56.13
51496;BME280;37572;52.094;4.870;2023-04-21T07:17:18;101465.44;;;16.33;55.73
51496;BME280;37572;52.094;4.870;2023-04-21T07:19:44;101469.53;;;16.67;54.83
51496;BME280;37572;52.094;4.870;2023-04-21T07:22:09;101462.38;;;16.82;53.98
51496;BME280;37572;52.094;4.870;2023-04-21T07:24:34;101466.44;;;16.78;53.53
51496;BME280;37572;52.094;4.870;2023-04-21T07:27:01;101464.28;;;16.73;53.17
51496;BME280;37572;52.094;4.870;2023-04-21T07:29:27;101473.91;;;16.68;53.17
51496;BME280;37572;52.094;4.870;2023-04-21T07:31:52;101481.75;;;16.54;52.94
51496;BME280;37572;52.094;4.870;2023-04-21T07:34:19;101473.13;;;16.36;52.75
51496;BME280;37572;52.094;4.870;2023-04-21T07:36:44;101480.69;;;16.09;52.87
51496;BME280;37572;52.094;4.870;2023-04-21T07:39:09;101474.06;;;15.88;53.34
51496;BME280;37572;52.094;4.870;2023-04-21T07:41:35;101471.22;;;15.82;53.71
51496;BME280;37572;52.094;4.870;2023-04-21T07:44:00;101479.28;;;15.82;53.67
51496;BME280;37572;52.094;4.870;2023-04-21T07:46:26;101478.47;;;15.73;53.33
51496;BME280;37572;52.094;4.870;2023-04-21T07:48:55;101482.22;;;15.64;53.53
51496;BME280;37572;52.094;4.870;2023-04-21T07:51:21;101480.22;;;15.49;53.56
51496;BME280;37572;52.094;4.870;2023-04-21T07:53:46;101482.28;;;15.39;53.94
51496;BME280;37572;52.094;4.870;2023-04-21T07:56:12;101483.47;;;15.20;54.11
51496;BME280;37572;52.094;4.870;2023-04-21T07:58:37;101486.00;;;15.05;53.91
51496;BME280;37572;52.094;4.870;2023-04-21T08:01:02;101487.53;;;14.91;54.47
51496;BME280;37572;52.094;4.870;2023-04-21T08:03:28;101488.03;;;14.95;54.79
51496;BME280;37572;52.094;4.870;2023-04-21T08:05:53;101483.69;;;14.94;54.85
51496;BME280;37572;52.094;4.870;2023-04-21T08:08:18;101478.50;;;15.01;54.83
51496;BME280;37572;52.094;4.870;2023-04-21T08:10:45;101475.94;;;15.15;54.89
51496;BME280;37572;52.094;4.870;2023-04-21T08:13:11;101474.56;;;15.36;54.53
51496;BME280;37572;52.094;4.870;2023-04-21T08:15:36;101485.91;;;15.54;54.06
51496;BME280;37572;52.094;4.870;2023-04-21T08:18:02;101485.88;;;15.63;53.46
51496;BME280;37572;52.094;4.870;2023-04-21T08:20:27;101480.31;;;15.72;53.68
51496;BME280;37572;52.094;4.870;2023-04-21T08:22:53;101474.91;;;15.89;53.70
51496;BME280;37572;52.094;4.870;2023-04-21T08:25:18;101473.94;;;16.13;53.21
51496;BME280;37572;52.094;4.870;2023-04-21T08:27:43;101473.19;;;16.51;53.21
51496;BME280;37572;52.094;4.870;2023-04-21T08:30:09;101467.44;;;16.77;51.80
51496;BME280;37572;52.094;4.870;2023-04-21T08:32:35;101468.47;;;16.99;51.24
51496;BME280;37572;52.094;4.870;2023-04-21T08:35:00;101466.25;;;17.17;50.15
51496;BME280;37572;52.094;4.870;2023-04-21T08:37:25;101463.69;;;17.39;50.77
51496;BME280;37572;52.094;4.870;2023-04-21T08:39:51;101466.72;;;17.66;50.58
51496;BME280;37572;52.094;4.870;2023-04-21T08:42:17;101459.09;;;17.84;49.91
51496;BME280;37572;52.094;4.870;2023-04-21T08:44:44;101465.31;;;18.00;49.45
51496;BME280;37572;52.094;4.870;2023-04-21T08:47:10;101469.56;;;18.09;48.68
51496;BME280;37572;52.094;4.870;2023-04-21T08:49:37;101469.28;;;18.19;48.48
51496;BME280;37572;52.094;4.870;2023-04-21T08:52:02;101470.69;;;18.36;47.83
51496;BME280;37572;52.094;4.870;2023-04-21T08:54:28;101464.84;;;18.54;46.63
51496;BME280;37572;52.094;4.870;2023-04-21T08:56:53;101461.97;;;18.56;46.66
51496;BME280;37572;52.094;4.870;2023-04-21T08:59:18;101470.94;;;18.41;46.46
51496;BME280;37572;52.094;4.870;2023-04-21T09:02:06;101466.84;;;18.24;46.21
51496;BME280;37572;52.094;4.870;2023-04-21T09:04:32;101463.63;;;18.14;47.27
51496;BME280;37572;52.094;4.870;2023-04-21T09:06:58;101450.53;;;18.10;46.97
51496;BME280;37572;52.094;4.870;2023-04-21T09:09:23;101454.94;;;18.18;47.39
51496;BME280;37572;52.094;4.870;2023-04-21T09:11:55;101452.25;;;18.18;46.79
51496;BME280;37572;52.094;4.870;2023-04-21T09:14:30;101445.75;;;18.12;47.08
51496;BME280;37572;52.094;4.870;2023-04-21T09:17:02;101450.47;;;18.25;48.02
51496;BME280;37572;52.094;4.870;2023-04-21T09:19:33;101450.00;;;18.43;47.48
51496;BME280;37572;52.094;4.870;2023-04-21T09:21:59;101453.69;;;18.57;46.58
51496;BME280;37572;52.094;4.870;2023-04-21T09:24:25;101453.25;;;18.54;46.79
51496;BME280;37572;52.094;4.870;2023-04-21T09:26:51;101451.38;;;18.54;46.63
51496;BME280;37572;52.094;4.870;2023-04-21T09:29:20;101441.91;;;18.65;46.47
51496;BME280;37572;52.094;4.870;2023-04-21T09:31:46;101450.25;;;18.70;46.69
51496;BME280;37572;52.094;4.870;2023-04-21T09:34:22;101454.13;;;18.61;46.25
51496;BME280;37572;52.094;4.870;2023-04-21T09:36:58;101451.56;;;18.53;46.63
51496;BME280;37572;52.094;4.870;2023-04-21T09:39:24;101453.63;;;18.51;46.50
51496;BME280;37572;52.094;4.870;2023-04-21T09:41:50;101446.78;;;18.55;45.88
51496;BME280;37572;52.094;4.870;2023-04-21T09:44:15;101444.16;;;18.61;46.51
51496;BME280;37572;52.094;4.870;2023-04-21T09:46:42;101435.50;;;18.66;45.74
51496;BME280;37572;52.094;4.870;2023-04-21T09:49:10;101433.81;;;18.86;46.20
51496;BME280;37572;52.094;4.870;2023-04-21T09:51:38;101433.31;;;19.04;46.27
51496;BME280;37572;52.094;4.870;2023-04-21T09:54:17;101432.00;;;19.22;46.37
51496;BME280;37572;52.094;4.870;2023-04-21T09:56:47;101434.16;;;19.40;45.98
51496;BME280;37572;52.094;4.870;2023-04-21T09:59:23;101427.97;;;19.46;45.66
51496;BME280;37572;52.094;4.870;2023-04-21T10:01:50;101439.16;;;19.43;45.82
51496;BME280;37572;52.094;4.870;2023-04-21T10:04:18;101435.00;;;19.40;45.39
51496;BME280;37572;52.094;4.870;2023-04-21T10:06:45;101432.06;;;19.35;45.32
51496;BME280;37572;52.094;4.870;2023-04-21T10:09:12;101430.75;;;19.25;44.73
51496;BME280;37572;52.094;4.870;2023-04-21T10:11:39;101431.25;;;19.07;44.08
51496;BME280;37572;52.094;4.870;2023-04-21T10:14:05;101427.88;;;18.98;44.69
51496;BME280;37572;52.094;4.870;2023-04-21T10:16:30;101425.56;;;18.95;44.50
51496;BME280;37572;52.094;4.870;2023-04-21T10:18:59;101422.63;;;18.90;44.91
51496;BME280;37572;52.094;4.870;2023-04-21T10:21:25;101430.09;;;18.88;45.06
51496;BME280;37572;52.094;4.870;2023-04-21T10:23:51;101430.53;;;18.91;44.93
51496;BME280;37572;52.094;4.870;2023-04-21T10:26:34;101431.09;;;18.86;44.73
51496;BME280;37572;52.094;4.870;2023-04-21T10:29:02;101424.25;;;18.84;44.64
51496;BME280;37572;52.094;4.870;2023-04-21T10:31:31;101424.25;;;18.84;44.82
51496;BME280;37572;52.094;4.870;2023-04-21T10:39:34;101406.38;;;18.83;45.56
51496;BME280;37572;52.094;4.870;2023-04-21T10:44:42;101406.81;;;18.86;45.55
51496;BME280;37572;52.094;4.870;2023-04-21T10:47:07;101404.59;;;18.90;45.15
51496;BME280;37572;52.094;4.870;2023-04-21T10:49:37;101409.81;;;18.98;45.04
51496;BME280;37572;52.094;4.870;2023-04-21T10:52:05;101395.97;;;19.08;44.93
51496;BME280;37572;52.094;4.870;2023-04-21T10:57:11;101386.25;;;19.14;44.28
51496;BME280;37572;52.094;4.870;2023-04-21T10:59:37;101386.88;;;19.16;44.22
51496;BME280;37572;52.094;4.870;2023-04-21T11:02:04;101386.25;;;19.14;43.97
51496;BME280;37572;52.094;4.870;2023-04-21T11:04:31;101384.19;;;19.16;44.09
51496;BME280;37572;52.094;4.870;2023-04-21T11:07:11;101383.38;;;19.15;43.26
51496;BME280;37572;52.094;4.870;2023-04-21T11:09:38;101383.38;;;19.15;43.60
51496;BME280;37572;52.094;4.870;2023-04-21T11:12:06;101385.91;;;19.23;44.24
51496;BME280;37572;52.094;4.870;2023-04-21T11:14:33;101373.63;;;19.21;43.34
51496;BME280;37572;52.094;4.870;2023-04-21T11:17:00;101374.03;;;19.18;44.32
51496;BME280;37572;52.094;4.870;2023-04-21T11:19:26;101361.38;;;19.25;44.48
51496;BME280;37572;52.094;4.870;2023-04-21T11:21:52;101358.97;;;19.37;44.78
51496;BME280;37572;52.094;4.870;2023-04-21T11:24:19;101349.88;;;19.58;44.67
51496;BME280;37572;52.094;4.870;2023-04-21T11:26:45;101348.53;;;19.75;44.17
51496;BME280;37572;52.094;4.870;2023-04-21T11:29:10;101343.78;;;19.98;44.83
51496;BME280;37572;52.094;4.870;2023-04-21T11:31:38;101347.97;;;20.20;44.25
51496;BME280;37572;52.094;4.870;2023-04-21T11:34:04;101341.31;;;20.43;43.93
51496;BME280;37572;52.094;4.870;2023-04-21T11:36:34;101339.66;;;20.55;43.03
51496;BME280;37572;52.094;4.870;2023-04-21T11:39:08;101332.75;;;20.59;42.70
51496;BME280;37572;52.094;4.870;2023-04-21T11:41:38;101329.25;;;20.45;42.43
51496;BME280;37572;52.094;4.870;2023-04-21T11:44:05;101335.06;;;20.42;42.53
51496;BME280;37572;52.094;4.870;2023-04-21T11:46:31;101335.06;;;20.36;42.59
51496;BME280;37572;52.094;4.870;2023-04-21T11:49:04;101331.31;;;20.30;42.97
51496;BME280;37572;52.094;4.870;2023-04-21T11:51:35;101328.00;;;20.21;43.21
51496;BME280;37572;52.094;4.870;2023-04-21T11:54:01;101325.50;;;20.13;43.93
51496;BME280;37572;52.094;4.870;2023-04-21T11:56:27;101324.06;;;20.17;44.02
51496;BME280;37572;52.094;4.870;2023-04-21T11:58:52;101316.34;;;20.14;42.52
51496;BME280;37572;52.094;4.870;2023-04-21T12:01:19;101309.28;;;20.13;42.79
51496;BME280;37572;52.094;4.870;2023-04-21T12:03:52;101311.78;;;20.14;43.36
51496;BME280;37572;52.094;4.870;2023-04-21T12:06:22;101314.69;;;20.20;43.58
51496;BME280;37572;52.094;4.870;2023-04-21T12:08:48;101308.03;;;20.15;43.71
51496;BME280;37572;52.094;4.870;2023-04-21T12:11:18;101313.03;;;20.12;43.97
51496;BME280;37572;52.094;4.870;2023-04-21T12:13:43;101317.78;;;20.17;44.26
51496;BME280;37572;52.094;4.870;2023-04-21T12:16:09;101308.25;;;20.21;43.75
51496;BME280;37572;52.094;4.870;2023-04-21T12:18:34;101309.91;;;20.22;44.26
51496;BME280;37572;52.094;4.870;2023-04-21T12:21:00;101303.66;;;20.21;44.30
51496;BME280;37572;52.094;4.870;2023-04-21T12:23:26;101300.75;;;20.23;44.66
51496;BME280;37572;52.094;4.870;2023-04-21T12:25:51;101305.53;;;20.27;44.83
51496;BME280;37572;52.094;4.870;2023-04-21T12:28:17;101303.84;;;20.46;44.01
51496;BME280;37572;52.094;4.870;2023-04-21T12:30:42;101298.63;;;20.72;43.63
51496;BME280;37572;52.094;4.870;2023-04-21T12:33:08;101293.13;;;20.98;43.13
51496;BME280;37572;52.094;4.870;2023-04-21T12:35:33;101290.38;;;21.18;43.13
51496;BME280;37572;52.094;4.870;2023-04-21T12:37:59;101284.22;;;21.36;42.18
51496;BME280;37572;52.094;4.870;2023-04-21T12:40:25;101279.72;;;21.69;42.09
51496;BME280;37572;52.094;4.870;2023-04-21T12:42:51;101271.59;;;21.94;40.89
51496;BME280;37572;52.094;4.870;2023-04-21T12:45:16;101271.59;;;21.94;40.28
51496;BME280;37572;52.094;4.870;2023-04-21T12:47:41;101278.38;;;21.78;41.17
51496;BME280;37572;52.094;4.870;2023-04-21T12:50:07;101273.09;;;21.58;42.08
51496;BME280;37572;52.094;4.870;2023-04-21T12:52:33;101276.03;;;21.56;42.55
51496;BME280;37572;52.094;4.870;2023-04-21T12:54:59;101275.53;;;21.66;41.97
51496;BME280;37572;52.094;4.870;2023-04-21T12:57:24;101272.22;;;21.64;42.06